Time;durP1;ratioP1;P1;durP2;ratioP2;P2;SDS_P1;SDS_P2;PMS_P1;PMS_P2;Temp;Humidity;BMP_temperature;BMP_pressure;BME280_temperature;BME280_humidity;BME280_pressure;Samples;Min_cycle;Max_cycle;Signal;HPM_P1;HPM_P2
2024/03/08 00:02:16;;;;;;;8.00;3.13;;;11.40;48.60;;;;;;6321875;28;20395;-77
2024/03/08 00:05:18;;;;;;;5.30;2.80;;;11.40;48.70;;;;;;6321399;28;20092;-76
2024/03/08 00:08:19;;;;;;;5.75;2.38;;;11.40;48.80;;;;;;6316448;28;20168;-75
2024/03/08 00:11:21;;;;;;;9.95;3.70;;;11.30;48.80;;;;;;6282115;28;20092;-75
2024/03/08 00:14:22;;;;;;;9.23;4.20;;;11.30;48.90;;;;;;6320551;28;20016;-76
2024/03/08 00:17:25;;;;;;;6.53;3.10;;;11.30;49.00;;;;;;6321067;28;20130;-76
2024/03/08 00:20:26;;;;;;;7.05;3.13;;;11.30;49.00;;;;;;6281599;28;20158;-75
2024/03/08 00:23:28;;;;;;;6.72;2.80;;;11.30;49.10;;;;;;6302613;28;20138;-77
2024/03/08 00:26:29;;;;;;;6.32;3.10;;;11.20;49.20;;;;;;6302559;28;20036;-77
2024/03/08 00:29:31;;;;;;;5.22;3.08;;;11.20;49.20;;;;;;6322397;28;20020;-75
2024/03/08 00:32:31;;;;;;;7.22;3.50;;;11.20;49.20;;;;;;6324757;28;20020;-77
2024/03/08 00:35:32;;;;;;;6.88;3.63;;;11.20;49.40;;;;;;6323726;28;20034;-75
2024/03/08 00:38:38;;;;;;;7.93;4.20;;;11.10;49.60;;;;;;6322000;28;20047;-75
2024/03/08 00:41:44;;;;;;;6.97;3.83;;;11.10;49.90;;;;;;6320475;28;20047;-76
2024/03/08 00:44:48;;;;;;;5.22;2.70;;;11.00;50.30;;;;;;6312385;28;20030;-76
2024/03/08 00:47:48;;;;;;;6.93;3.33;;;10.90;50.40;;;;;;6312295;28;20127;-75
2024/03/08 00:50:49;;;;;;;12.57;3.92;;;10.90;50.60;;;;;;6313951;28;20048;-75
2024/03/08 00:53:51;;;;;;;4.20;2.28;;;10.80;50.80;;;;;;6317842;28;20020;-77
2024/03/08 00:56:52;;;;;;;7.35;2.88;;;10.70;50.90;;;;;;6303384;28;20024;-77
2024/03/08 00:59:53;;;;;;;7.95;3.45;;;10.70;51.10;;;;;;6318378;28;20020;-76
2024/03/08 01:02:55;;;;;;;5.22;2.45;;;10.70;51.20;;;;;;6293233;28;20132;-76
2024/03/08 01:05:56;;;;;;;6.68;3.33;;;10.60;51.30;;;;;;6295911;28;20140;-76
2024/03/08 01:08:57;;;;;;;11.82;4.18;;;10.50;51.50;;;;;;6311859;28;20032;-76
2024/03/08 01:11:57;;;;;;;12.38;3.55;;;10.40;51.70;;;;;;6303453;28;20382;-75
2024/03/08 01:15:01;;;;;;;8.90;3.30;;;10.30;51.90;;;;;;6310713;28;20392;-77
2024/03/08 01:18:02;;;;;;;5.55;2.72;;;10.30;52.10;;;;;;6299019;28;20058;-76
2024/03/08 01:21:05;;;;;;;5.15;2.92;;;10.20;52.20;;;;;;6297376;28;20029;-75
2024/03/08 01:24:06;;;;;;;5.80;2.20;;;10.10;53.00;;;;;;6313945;28;20028;-76
2024/03/08 01:27:09;;;;;;;4.22;2.50;;;10.00;52.60;;;;;;6305181;28;20043;-76
2024/03/08 01:30:10;;;;;;;4.53;2.60;;;10.00;52.70;;;;;;6320007;28;20028;-76
2024/03/08 01:33:11;;;;;;;5.97;2.60;;;10.00;52.70;;;;;;6302117;28;20028;-77
2024/03/08 01:36:15;;;;;;;8.15;2.78;;;10.00;53.50;;;;;;6284299;28;20063;-76
2024/03/08 01:39:17;;;;;;;8.48;3.10;;;9.90;53.00;;;;;;6296227;28;20024;-75
2024/03/08 01:42:22;;;;;;;5.45;2.60;;;9.90;53.00;;;;;;6401951;22;21687;-75
2024/03/08 01:45:22;;;;;;;10.18;3.17;;;9.90;53.10;;;;;;6298499;28;20050;-76
2024/03/08 01:48:23;;;;;;;7.30;2.97;;;9.90;53.00;;;;;;6313823;28;20055;-75
2024/03/08 01:51:24;;;;;;;6.30;3.10;;;9.90;52.90;;;;;;6314839;28;20031;-75
2024/03/08 01:54:26;;;;;;;7.00;2.97;;;9.90;52.90;;;;;;6316812;28;20085;-75
2024/03/08 01:57:28;;;;;;;7.85;2.22;;;10.00;52.90;;;;;;6321379;28;20024;-76
2024/03/08 02:00:30;;;;;;;8.10;2.83;;;10.00;53.10;;;;;;6323520;28;20054;-76
2024/03/08 02:03:34;;;;;;;8.85;4.05;;;9.90;53.10;;;;;;6322859;28;20077;-76
2024/03/08 02:06:37;;;;;;;8.05;3.75;;;9.90;53.40;;;;;;6306041;28;20036;-77
2024/03/08 02:09:39;;;;;;;6.25;2.95;;;9.90;53.40;;;;;;6315796;28;20674;-75
2024/03/08 02:12:41;;;;;;;5.93;3.45;;;9.90;53.50;;;;;;6296603;28;20028;-76
2024/03/08 02:15:59;;;;;;;6.90;3.33;;;9.90;53.50;;;;;;6300129;28;20044;-75
2024/03/08 02:19:01;;;;;;;7.75;3.45;;;9.90;53.70;;;;;;6298858;28;20048;-76
2024/03/08 02:22:04;;;;;;;7.78;3.30;;;9.90;53.90;;;;;;6318002;28;20031;-76
2024/03/08 02:25:07;;;;;;;6.10;3.72;;;9.90;54.10;;;;;;6324247;28;20037;-75
2024/03/08 02:28:14;;;;;;;6.30;3.30;;;9.90;54.10;;;;;;6326747;28;20036;-76
2024/03/08 02:31:15;;;;;;;5.53;3.00;;;9.90;54.10;;;;;;6326048;28;20088;-75
2024/03/08 02:34:16;;;;;;;6.78;3.75;;;9.90;54.10;;;;;;6325928;28;20022;-75
2024/03/08 02:37:18;;;;;;;6.18;3.00;;;9.90;54.20;;;;;;6330310;28;20024;-77
2024/03/08 02:40:19;;;;;;;6.45;3.38;;;9.80;54.20;;;;;;6326420;28;20028;-76
2024/03/08 02:43:24;;;;;;;3.88;2.50;;;9.80;54.30;;;;;;6319009;28;20054;-76
2024/03/08 02:46:25;;;;;;;8.38;4.60;;;9.80;54.50;;;;;;6301620;28;20122;-76
2024/03/08 02:49:28;;;;;;;5.90;3.42;;;9.70;54.60;;;;;;6318860;28;20039;-76
2024/03/08 02:52:30;;;;;;;8.98;4.43;;;9.70;54.60;;;;;;6320831;28;20024;-77
2024/03/08 02:55:33;;;;;;;8.43;2.85;;;9.60;54.60;;;;;;6322437;28;20064;-76
2024/03/08 02:58:35;;;;;;;7.25;3.42;;;9.70;54.70;;;;;;6326375;28;20040;-77
2024/03/08 03:01:38;;;;;;;8.93;3.03;;;9.70;54.70;;;;;;6320425;28;20038;-76
2024/03/08 03:04:40;;;;;;;5.50;2.58;;;9.70;54.80;;;;;;6321017;28;20084;-77
2024/03/08 03:07:41;;;;;;;6.28;3.30;;;9.70;55.00;;;;;;6304153;28;20711;-74
2024/03/08 03:10:43;;;;;;;7.47;3.25;;;9.60;55.20;;;;;;6322208;28;20110;-77
2024/03/08 03:13:48;;;;;;;6.18;3.38;;;9.50;55.40;;;;;;6321085;28;20061;-75
2024/03/08 03:16:49;;;;;;;7.18;3.17;;;9.40;55.60;;;;;;6325089;28;20099;-77
2024/03/08 03:19:52;;;;;;;10.48;4.35;;;9.40;55.80;;;;;;6323410;28;20482;-76
2024/03/08 03:23:00;;;;;;;5.90;3.63;;;9.30;55.70;;;;;;6320868;28;20028;-77
2024/03/08 03:26:02;;;;;;;7.28;3.47;;;9.30;55.80;;;;;;6305716;28;20032;-75
2024/03/08 03:29:03;;;;;;;8.05;3.53;;;9.40;55.90;;;;;;6324719;28;20024;-76
2024/03/08 03:32:11;;;;;;;6.05;3.10;;;9.40;56.00;;;;;;6328049;28;20039;-77
2024/03/08 03:35:14;;;;;;;6.35;3.33;;;9.40;56.00;;;;;;6324078;28;20054;-75
2024/03/08 03:38:17;;;;;;;5.18;3.25;;;9.40;56.00;;;;;;6323675;28;20032;-76
2024/03/08 03:41:20;;;;;;;7.40;3.33;;;9.40;55.80;;;;;;6322327;28;20040;-77
2024/03/08 03:44:22;;;;;;;4.97;3.25;;;9.40;55.80;;;;;;6318225;28;20062;-77
2024/03/08 03:47:23;;;;;;;7.32;3.55;;;9.40;55.90;;;;;;6316065;28;20016;-76
2024/03/08 03:50:24;;;;;;;5.00;2.75;;;9.40;55.80;;;;;;6317524;28;20063;-77
2024/03/08 03:53:27;;;;;;;6.25;3.63;;;9.40;55.80;;;;;;6322483;28;20123;-78
2024/03/08 03:56:29;;;;;;;8.38;3.58;;;9.40;55.80;;;;;;6322371;28;20020;-76
2024/03/08 03:59:31;;;;;;;8.10;3.97;;;9.40;55.90;;;;;;6322240;28;20340;-76
2024/03/08 04:02:32;;;;;;;6.20;3.92;;;9.40;56.00;;;;;;6318401;28;20028;-75
2024/03/08 04:05:34;;;;;;;5.10;3.20;;;9.40;56.10;;;;;;6319173;28;20119;-77
2024/03/08 04:08:36;;;;;;;7.85;3.35;;;9.40;56.10;;;;;;6284967;28;20040;-76
2024/03/08 04:11:37;;;;;;;7.47;3.42;;;9.40;56.10;;;;;;6316936;28;20084;-77
2024/03/08 04:14:42;;;;;;;5.93;3.53;;;9.40;56.10;;;;;;6318118;28;20114;-79
2024/03/08 04:17:45;;;;;;;10.05;4.00;;;9.30;56.00;;;;;;6319673;28;20391;-76
2024/03/08 04:20:46;;;;;;;6.50;3.20;;;9.40;56.00;;;;;;6317008;28;20039;-76
2024/03/08 04:23:47;;;;;;;5.80;3.25;;;9.30;55.90;;;;;;6319488;28;20036;-77
2024/03/08 04:26:49;;;;;;;8.27;3.60;;;9.30;55.90;;;;;;6307525;28;21517;-74
2024/03/08 04:29:51;;;;;;;7.50;3.53;;;9.30;56.00;;;;;;6325349;28;20028;-76
2024/03/08 04:32:52;;;;;;;7.00;4.15;;;9.30;56.10;;;;;;6323953;28;20100;-76
2024/03/08 04:35:56;;;;;;;8.43;3.95;;;9.30;56.20;;;;;;6286464;28;20042;-75
2024/03/08 04:38:57;;;;;;;12.93;4.07;;;9.30;56.30;;;;;;6317899;28;20043;-74
2024/03/08 04:42:03;;;;;;;6.97;3.67;;;9.30;56.40;;;;;;6319961;28;20358;-75
2024/03/08 04:45:07;;;;;;;6.20;3.72;;;9.20;56.60;;;;;;6298524;28;20097;-76
2024/03/08 04:48:08;;;;;;;8.40;3.22;;;9.20;56.60;;;;;;6315130;28;20093;-75
2024/03/08 04:51:11;;;;;;;6.97;3.80;;;9.20;56.60;;;;;;6281799;28;20032;-76
2024/03/08 04:54:13;;;;;;;9.25;4.25;;;9.20;56.60;;;;;;6318643;28;20466;-76
2024/03/08 04:57:18;;;;;;;10.40;4.47;;;9.10;56.60;;;;;;6322744;28;20020;-76
2024/03/08 05:00:20;;;;;;;6.22;3.88;;;9.10;56.60;;;;;;6303904;28;20051;-76
2024/03/08 05:03:21;;;;;;;8.10;4.03;;;9.20;56.60;;;;;;6318436;28;20088;-76
2024/03/08 05:06:23;;;;;;;10.10;4.13;;;9.10;56.60;;;;;;6317761;28;20062;-76
2024/03/08 05:09:24;;;;;;;10.15;4.90;;;9.20;56.60;;;;;;6319412;28;20436;-75
2024/03/08 05:12:25;;;;;;;14.60;5.03;;;9.20;56.60;;;;;;6315162;28;20114;-77
2024/03/08 05:15:28;;;;;;;7.63;4.07;;;9.20;56.60;;;;;;6299475;28;20077;-76
2024/03/08 05:18:32;;;;;;;7.68;3.92;;;9.20;56.60;;;;;;6320890;28;20663;-76
2024/03/08 05:21:33;;;;;;;15.30;3.92;;;9.20;56.60;;;;;;6319639;28;20021;-74
2024/03/08 05:24:34;;;;;;;9.63;3.22;;;9.20;56.60;;;;;;6320281;28;20024;-77
2024/03/08 05:27:35;;;;;;;6.75;2.90;;;9.20;56.50;;;;;;6307934;28;20171;-76
2024/03/08 05:30:41;;;;;;;9.07;3.88;;;9.20;56.40;;;;;;6324607;28;20032;-76
2024/03/08 05:33:43;;;;;;;11.05;3.63;;;9.20;56.30;;;;;;6276764;28;20033;-77
2024/03/08 05:36:46;;;;;;;9.10;3.33;;;9.20;56.20;;;;;;6331652;28;20109;-76
2024/03/08 05:39:47;;;;;;;7.68;3.53;;;9.10;56.10;;;;;;6310110;28;20190;-78
2024/03/08 05:42:48;;;;;;;7.88;4.13;;;9.20;56.00;;;;;;6281207;28;20494;-75
2024/03/08 05:45:49;;;;;;;4.82;3.28;;;9.10;56.00;;;;;;6314905;28;20047;-76
2024/03/08 05:48:51;;;;;;;8.30;3.15;;;9.10;56.00;;;;;;6297371;28;20024;-76
2024/03/08 05:51:54;;;;;;;9.20;4.28;;;9.10;56.00;;;;;;6313861;28;20043;-76
2024/03/08 05:54:56;;;;;;;12.00;3.50;;;9.10;56.00;;;;;;6314546;28;20425;-76
2024/03/08 05:57:57;;;;;;;9.65;4.35;;;9.10;56.00;;;;;;6323936;28;20028;-75
2024/03/08 06:01:00;;;;;;;11.80;4.38;;;9.10;56.00;;;;;;6320356;28;20020;-76
2024/03/08 06:04:03;;;;;;;6.25;3.72;;;9.10;56.00;;;;;;6323671;28;20125;-74
2024/03/08 06:07:04;;;;;;;11.55;4.30;;;9.10;56.00;;;;;;6321487;28;20024;-76
2024/03/08 06:10:12;;;;;;;7.20;3.15;;;9.10;55.90;;;;;;6320830;28;20463;-78
2024/03/08 06:13:13;;;;;;;5.95;3.22;;;9.10;55.90;;;;;;6320052;28;20295;-75
2024/03/08 06:16:16;;;;;;;8.07;3.75;;;9.10;55.90;;;;;;6324783;28;20020;-76
2024/03/08 06:19:18;;;;;;;9.07;5.70;;;9.10;56.00;;;;;;6319964;28;20024;-76
2024/03/08 06:22:19;;;;;;;10.38;4.65;;;9.10;56.10;;;;;;6307202;28;20064;-75
2024/03/08 06:25:20;;;;;;;8.57;4.25;;;9.10;56.10;;;;;;6310112;28;20117;-77
2024/03/08 06:28:22;;;;;;;5.18;3.03;;;9.10;56.10;;;;;;6297519;28;20120;-79
2024/03/08 06:31:28;;;;;;;8.10;4.75;;;9.20;56.10;;;;;;6313772;28;20051;-77
2024/03/08 06:34:29;;;;;;;8.27;4.45;;;9.20;56.00;;;;;;6304819;28;20047;-76
2024/03/08 06:37:31;;;;;;;7.80;3.90;;;9.20;55.90;;;;;;6300361;28;20694;-76
2024/03/08 06:40:32;;;;;;;7.13;4.20;;;9.20;55.80;;;;;;6321108;28;20101;-77
2024/03/08 06:43:34;;;;;;;7.95;4.57;;;9.20;55.80;;;;;;6322561;28;20100;-77
2024/03/08 06:46:35;;;;;;;10.27;4.05;;;9.20;55.90;;;;;;6320918;28;20182;-75
2024/03/08 06:49:35;;;;;;;7.70;4.05;;;9.20;55.90;;;;;;6320095;28;20036;-77
2024/03/08 06:52:38;;;;;;;8.57;4.82;;;9.20;55.90;;;;;;6322269;28;20036;-77
2024/03/08 06:55:40;;;;;;;7.07;4.78;;;9.20;56.00;;;;;;6322172;28;20209;-77
2024/03/08 06:58:42;;;;;;;14.52;5.53;;;9.20;56.10;;;;;;6307383;28;20032;-76
2024/03/08 07:01:43;;;;;;;12.40;4.95;;;9.10;56.20;;;;;;6323079;28;20020;-78
2024/03/08 07:04:43;;;;;;;11.13;4.28;;;9.10;56.20;;;;;;6321595;28;20031;-78
2024/03/08 07:07:48;;;;;;;8.18;4.50;;;9.20;56.40;;;;;;6326204;28;20028;-75
2024/03/08 07:10:49;;;;;;;8.98;4.57;;;9.20;56.20;;;;;;6324181;28;20035;-76
2024/03/08 07:13:50;;;;;;;11.05;4.97;;;9.30;56.20;;;;;;6316863;28;20076;-77
2024/03/08 07:16:52;;;;;;;14.35;5.63;;;9.30;56.10;;;;;;6319438;28;20764;-76
2024/03/08 07:19:57;;;;;;;13.65;5.55;;;9.40;56.20;;;;;;6321665;28;20084;-76
2024/03/08 07:22:57;;;;;;;10.45;4.47;;;9.40;56.20;;;;;;6326299;28;20414;-77
2024/03/08 07:26:00;;;;;;;12.20;5.22;;;9.40;56.20;;;;;;6327493;28;20028;-77
2024/03/08 07:29:01;;;;;;;9.50;4.93;;;9.50;56.10;;;;;;6329537;28;20028;-76
2024/03/08 07:32:18;;;;;;;21.77;5.80;;;9.50;56.00;;;;;;6325059;28;20020;-79
2024/03/08 07:35:18;;;;;;;10.43;4.72;;;9.60;56.00;;;;;;6299102;28;20008;-77
2024/03/08 07:38:23;;;;;;;13.55;6.30;;;9.60;56.00;;;;;;6324413;28;20043;-78
2024/03/08 07:41:25;;;;;;;13.73;6.30;;;9.70;55.90;;;;;;6330606;28;20020;-77
2024/03/08 07:44:29;;;;;;;11.82;4.93;;;9.80;55.70;;;;;;6327535;28;20103;-77
2024/03/08 07:47:33;;;;;;;16.13;5.93;;;9.90;55.50;;;;;;6331146;28;20031;-75
2024/03/08 07:50:35;;;;;;;11.00;5.35;;;10.10;55.50;;;;;;6322583;28;20039;-77
2024/03/08 07:53:37;;;;;;;13.93;6.32;;;10.10;55.20;;;;;;6324401;28;20047;-77
2024/03/08 07:56:42;;;;;;;8.57;4.38;;;10.10;55.10;;;;;;6325404;28;20023;-77
2024/03/08 08:00:38;;;;;;;28.20;7.35;;;10.10;55.00;;;;;;6331906;28;20040;-74
2024/03/08 08:04:04;;;;;;;13.18;6.70;;;10.10;55.00;;;;;;6317650;28;20040;-79
2024/03/08 08:07:07;;;;;;;14.80;6.90;;;10.10;55.00;;;;;;6293803;28;20036;-77
2024/03/08 08:10:33;;;;;;;11.60;5.63;;;10.20;55.10;;;;;;6329451;28;20025;-77
2024/03/08 08:13:36;;;;;;;14.20;4.60;;;10.30;55.40;;;;;;6328408;28;20015;-76
2024/03/08 08:16:37;;;;;;;13.15;6.30;;;10.40;54.70;;;;;;6327581;28;20183;-78
2024/03/08 08:19:40;;;;;;;12.35;6.57;;;10.40;54.60;;;;;;6323357;28;20421;-78
2024/03/08 08:22:42;;;;;;;14.02;6.50;;;10.40;54.50;;;;;;6322772;28;20020;-78
2024/03/08 08:25:44;;;;;;;25.20;7.63;;;10.40;54.50;;;;;;6306667;28;20027;-78
2024/03/08 08:28:46;;;;;;;18.73;7.63;;;10.40;54.50;;;;;;6320924;28;20032;-79
2024/03/08 08:31:49;;;;;;;12.88;6.07;;;10.40;54.40;;;;;;6317226;28;20028;-78
2024/03/08 08:34:50;;;;;;;16.15;6.97;;;10.50;54.40;;;;;;6301664;28;20090;-78
2024/03/08 08:37:51;;;;;;;14.38;6.82;;;10.60;54.40;;;;;;6320377;28;20028;-78
2024/03/08 08:40:52;;;;;;;12.98;5.43;;;10.70;54.30;;;;;;6319489;28;21371;-77
2024/03/08 08:43:54;;;;;;;12.73;6.43;;;10.80;54.10;;;;;;6318636;28;20126;-82
2024/03/08 08:46:55;;;;;;;13.38;5.95;;;10.80;53.90;;;;;;6320511;28;20028;-77
2024/03/08 08:49:57;;;;;;;13.48;6.60;;;10.90;53.90;;;;;;6320997;28;20110;-78
2024/03/08 08:53:00;;;;;;;14.90;6.10;;;11.10;53.80;;;;;;6305921;28;20052;-79
2024/03/08 08:56:01;;;;;;;15.23;6.18;;;11.30;53.30;;;;;;6330727;28;20040;-77
2024/03/08 08:59:04;;;;;;;18.40;6.97;;;11.40;53.00;;;;;;6329493;28;20104;-77
2024/03/08 09:02:08;;;;;;;14.07;6.75;;;11.60;52.60;;;;;;6329670;28;20031;-78
2024/03/08 09:05:09;;;;;;;13.27;5.88;;;11.80;52.10;;;;;;6328092;28;20070;-76
2024/03/08 09:08:12;;;;;;;24.17;6.35;;;11.80;51.10;;;;;;6329422;28;20035;-78
2024/03/08 09:11:13;;;;;;;13.77;6.60;;;11.80;50.60;;;;;;6327198;28;20051;-77
2024/03/08 09:14:17;;;;;;;15.18;5.95;;;11.80;50.60;;;;;;6325651;28;20028;-76
2024/03/08 09:17:20;;;;;;;11.52;5.55;;;11.90;50.60;;;;;;6309517;28;20130;-78
2024/03/08 09:20:21;;;;;;;12.30;6.25;;;12.00;50.70;;;;;;6294637;28;20039;-78
2024/03/08 09:23:25;;;;;;;9.93;4.63;;;12.20;50.60;;;;;;6328672;28;20024;-78
2024/03/08 09:26:26;;;;;;;12.43;5.55;;;12.30;50.10;;;;;;6323145;28;20096;-78
2024/03/08 09:29:28;;;;;;;14.32;5.72;;;12.30;49.50;;;;;;6310983;28;20084;-77
2024/03/08 09:32:32;;;;;;;14.43;5.57;;;12.40;49.30;;;;;;6329289;28;20031;-77
2024/03/08 09:35:34;;;;;;;13.50;6.70;;;12.50;49.20;;;;;;6327143;28;20503;-78
2024/03/08 09:38:36;;;;;;;19.92;6.78;;;12.60;48.80;;;;;;6322430;28;20032;-77
2024/03/08 09:41:39;;;;;;;15.00;6.10;;;12.60;49.00;;;;;;6304084;28;20549;-78
2024/03/08 09:44:43;;;;;;;13.45;6.32;;;12.80;48.60;;;;;;6317394;28;20502;-79
2024/03/08 09:47:45;;;;;;;14.50;5.75;;;12.90;48.30;;;;;;6321786;28;20104;-78
2024/03/08 09:50:48;;;;;;;12.95;5.30;;;13.10;48.00;;;;;;6318380;28;20013;-77
2024/03/08 09:53:49;;;;;;;11.85;4.80;;;13.10;47.60;;;;;;6282192;28;20071;-78
2024/03/08 09:56:52;;;;;;;12.57;5.68;;;13.20;47.20;;;;;;6313774;28;20125;-78
2024/03/08 09:59:53;;;;;;;14.98;5.40;;;13.20;46.90;;;;;;6315266;28;20023;-77
2024/03/08 10:02:54;;;;;;;12.45;5.38;;;13.20;46.70;;;;;;6315651;28;20028;-79
2024/03/08 10:06:02;;;;;;;10.98;4.68;;;13.20;47.00;;;;;;6309400;28;20395;-78
2024/03/08 10:09:05;;;;;;;15.45;5.70;;;13.30;46.60;;;;;;6315972;28;20066;-78
2024/03/08 10:12:12;;;;;;;11.80;5.68;;;13.30;46.30;;;;;;6313556;28;20039;-78
2024/03/08 10:15:16;;;;;;;10.18;4.30;;;13.40;46.50;;;;;;6317324;28;20069;-78
2024/03/08 10:18:17;;;;;;;11.13;5.50;;;13.50;46.10;;;;;;6313029;28;20069;-78
2024/03/08 10:21:20;;;;;;;15.75;8.20;;;13.60;45.60;;;;;;6312175;28;20144;-78
2024/03/08 10:24:23;;;;;;;21.23;7.85;;;13.60;45.60;;;;;;6310045;28;20043;-78
2024/03/08 10:27:26;;;;;;;7.65;4.30;;;13.70;45.70;;;;;;6309379;28;20178;-78
2024/03/08 10:30:27;;;;;;;7.07;3.88;;;13.80;45.30;;;;;;6312717;28;20107;-78
2024/03/08 10:33:28;;;;;;;11.32;5.80;;;13.70;44.30;;;;;;6309123;28;20111;-79
2024/03/08 10:36:30;;;;;;;19.70;7.72;;;13.60;44.50;;;;;;6312075;28;20028;-77
2024/03/08 10:39:36;;;;;;;10.75;5.13;;;13.60;45.00;;;;;;6310412;28;20031;-78
2024/03/08 10:42:48;;;;;;;10.85;5.38;;;13.60;44.90;;;;;;6308129;28;20111;-77
2024/03/08 10:45:53;;;;;;;19.02;7.97;;;13.60;44.80;;;;;;6314136;28;20110;-76
2024/03/08 10:49:01;;;;;;;21.13;7.95;;;13.60;44.90;;;;;;6316358;28;20160;-78
2024/03/08 10:52:08;;;;;;;4.97;3.22;;;13.80;44.90;;;;;;6318204;28;20628;-78
2024/03/08 10:55:12;;;;;;;6.95;3.58;;;13.90;44.00;;;;;;6314753;28;20028;-78
2024/03/08 10:58:14;;;;;;;16.63;6.95;;;14.00;43.40;;;;;;6305315;28;20134;-77
2024/03/08 11:01:15;;;;;;;20.23;7.68;;;14.10;43.40;;;;;;6314098;28;20028;-77
2024/03/08 11:04:19;;;;;;;7.45;4.07;;;14.20;43.30;;;;;;6312654;28;20028;-77
2024/03/08 11:07:20;;;;;;;9.60;4.32;;;14.20;43.00;;;;;;6312505;28;20379;-78
2024/03/08 11:10:21;;;;;;;9.93;4.18;;;14.20;43.20;;;;;;6318055;28;20024;-76
2024/03/08 11:13:44;;;;;;;12.85;5.60;;;14.20;43.10;;;;;;6297671;28;20024;-77
2024/03/08 11:16:45;;;;;;;9.63;4.90;;;14.30;43.20;;;;;;6315507;28;20059;-77
2024/03/08 11:19:48;;;;;;;14.68;6.32;;;14.40;43.10;;;;;;6315830;28;20120;-76
2024/03/08 11:22:52;;;;;;;13.27;4.43;;;14.50;42.60;;;;;;6301651;28;20031;-77
2024/03/08 11:25:53;;;;;;;7.80;3.70;;;14.70;42.20;;;;;;6315691;28;20108;-77
2024/03/08 11:28:55;;;;;;;10.52;4.45;;;14.70;41.20;;;;;;6314556;28;21393;-78
2024/03/08 11:32:07;;;;;;;9.98;4.65;;;14.80;41.10;;;;;;6316314;28;20016;-77
2024/03/08 11:35:19;;;;;;;15.07;6.32;;;14.90;41.30;;;;;;6315648;28;20024;-79
2024/03/08 11:38:22;;;;;;;13.88;6.57;;;15.00;41.40;;;;;;6315202;28;20397;-78
2024/03/08 11:41:24;;;;;;;18.85;6.72;;;15.20;41.10;;;;;;6314969;28;20031;-79
2024/03/08 11:44:27;;;;;;;8.52;4.68;;;15.30;40.80;;;;;;6299731;28;20032;-77
2024/03/08 11:47:29;;;;;;;7.95;3.88;;;15.40;40.70;;;;;;6317581;28;20043;-78
2024/03/08 11:50:30;;;;;;;13.18;4.07;;;15.40;40.70;;;;;;6301454;28;20017;-78
2024/03/08 11:53:32;;;;;;;16.10;6.90;;;15.30;40.00;;;;;;6316671;28;20030;-78
2024/03/08 11:56:36;;;;;;;9.68;5.32;;;15.40;40.50;;;;;;6316772;28;20038;-79
2024/03/08 11:59:38;;;;;;;14.75;6.45;;;15.50;40.70;;;;;;6311688;28;20024;-78
2024/03/08 12:02:42;;;;;;;16.52;7.20;;;15.50;40.90;;;;;;6304758;28;20039;-78
2024/03/08 12:05:43;;;;;;;16.70;7.45;;;15.40;41.20;;;;;;6320648;28;20504;-78
2024/03/08 12:08:49;;;;;;;20.90;7.95;;;15.40;41.50;;;;;;6319302;28;20047;-77
2024/03/08 12:11:55;;;;;;;13.40;6.60;;;15.30;41.70;;;;;;6317636;28;20099;-77
2024/03/08 12:14:58;;;;;;;15.38;7.53;;;15.30;41.90;;;;;;6318544;28;20087;-77
2024/03/08 12:18:00;;;;;;;12.75;5.82;;;15.40;42.00;;;;;;6315035;28;20024;-78
2024/03/08 12:21:22;;;;;;;9.48;4.70;;;15.40;42.00;;;;;;6316904;28;20597;-78
2024/03/08 12:24:23;;;;;;;10.35;4.60;;;15.50;41.90;;;;;;6311887;28;20038;-78
2024/03/08 12:27:28;;;;;;;15.73;5.18;;;15.60;41.70;;;;;;6310448;28;20040;-78
2024/03/08 12:30:33;;;;;;;7.63;4.45;;;15.60;41.70;;;;;;6293983;28;20026;-78
2024/03/08 12:33:34;;;;;;;13.82;5.97;;;15.70;41.50;;;;;;6312749;28;20115;-79
2024/03/08 12:36:38;;;;;;;17.20;6.22;;;15.80;41.30;;;;;;6314444;28;20028;-77
2024/03/08 12:39:41;;;;;;;14.70;6.93;;;15.80;41.20;;;;;;6317773;28;20047;-79
2024/03/08 12:42:47;;;;;;;14.50;5.82;;;15.90;41.00;;;;;;6305064;28;20131;-78
2024/03/08 12:46:09;;;;;;;13.18;5.13;;;15.90;40.60;;;;;;6309902;28;20470;-77
2024/03/08 12:49:10;;;;;;;24.63;8.52;;;15.80;40.60;;;;;;6323887;28;20760;-79
2024/03/08 12:52:11;;;;;;;15.80;7.35;;;15.90;40.70;;;;;;6326044;28;20026;-77
2024/03/08 12:55:12;;;;;;;12.93;5.35;;;15.90;40.60;;;;;;6324264;28;20034;-79
2024/03/08 12:58:16;;;;;;;12.50;4.95;;;15.90;40.50;;;;;;6320302;28;20296;-78
2024/03/08 13:01:18;;;;;;;10.25;4.93;;;16.00;40.60;;;;;;6321619;28;20031;-78
2024/03/08 13:04:21;;;;;;;13.35;5.35;;;16.10;40.70;;;;;;6322957;28;20020;-78
2024/03/08 13:07:23;;;;;;;15.95;4.70;;;16.20;40.60;;;;;;6285226;28;20036;-78
2024/03/08 13:10:24;;;;;;;13.02;6.00;;;16.30;40.50;;;;;;6319833;28;20020;-78
2024/03/08 13:13:25;;;;;;;12.43;5.20;;;16.20;40.30;;;;;;6318639;28;20020;-77
2024/03/08 13:16:29;;;;;;;13.30;5.60;;;16.10;40.40;;;;;;6318112;28;20047;-77
2024/03/08 13:19:30;;;;;;;10.15;4.32;;;16.00;40.60;;;;;;6320941;28;20093;-77
2024/03/08 13:22:31;;;;;;;13.80;4.95;;;15.80;40.90;;;;;;6314967;28;20020;-78
2024/03/08 13:25:32;;;;;;;14.93;5.50;;;15.70;41.20;;;;;;6315589;28;20030;-78
2024/03/08 13:28:36;;;;;;;12.45;4.80;;;15.70;41.50;;;;;;6294871;28;20124;-77
2024/03/08 13:31:39;;;;;;;10.05;4.90;;;15.60;41.70;;;;;;6294383;28;20119;-79
2024/03/08 13:34:45;;;;;;;9.40;4.88;;;15.50;41.80;;;;;;6310872;28;20542;-76
2024/03/08 13:37:46;;;;;;;14.80;5.32;;;15.40;42.10;;;;;;6313250;28;20575;-79
2024/03/08 13:40:49;;;;;;;9.20;4.47;;;15.40;42.20;;;;;;6312025;28;20100;-79
2024/03/08 13:43:50;;;;;;;10.45;3.72;;;15.40;42.40;;;;;;6297725;28;20395;-78
2024/03/08 13:46:51;;;;;;;10.23;4.25;;;15.40;42.40;;;;;;6315903;28;20121;-77
2024/03/08 13:49:52;;;;;;;12.77;4.78;;;15.40;42.40;;;;;;6316447;28;20020;-77
2024/03/08 13:52:56;;;;;;;11.13;4.85;;;15.50;42.40;;;;;;6313553;28;20123;-77
2024/03/08 13:56:01;;;;;;;6.57;3.10;;;15.40;42.30;;;;;;6313211;28;20039;-79
2024/03/08 13:59:02;;;;;;;5.65;2.50;;;15.40;42.40;;;;;;6311569;28;20020;-79
2024/03/08 14:02:05;;;;;;;5.95;2.58;;;15.50;42.10;;;;;;6310919;28;20016;-78
2024/03/08 14:05:08;;;;;;;6.32;3.05;;;15.50;41.60;;;;;;6310115;28;20067;-78
2024/03/08 14:08:11;;;;;;;6.25;3.05;;;15.50;41.50;;;;;;6294342;28;20064;-78
2024/03/08 14:11:13;;;;;;;5.45;2.38;;;15.50;41.50;;;;;;6314600;28;20016;-77
2024/03/08 14:14:14;;;;;;;6.88;2.47;;;15.60;41.50;;;;;;6314228;28;20568;-77
2024/03/08 14:17:17;;;;;;;6.15;2.10;;;15.70;41.40;;;;;;6313120;28;20068;-79
2024/03/08 14:20:18;;;;;;;3.63;2.05;;;15.80;41.30;;;;;;6316610;28;20035;-76
2024/03/08 14:23:22;;;;;;;4.07;2.08;;;15.80;41.30;;;;;;6314224;28;20023;-78
2024/03/08 14:26:23;;;;;;;3.45;1.77;;;15.90;41.10;;;;;;6318140;28;20073;-77
2024/03/08 14:29:27;;;;;;;9.02;2.88;;;16.10;41.20;;;;;;6318290;28;20008;-78
2024/03/08 14:32:28;;;;;;;6.35;2.38;;;16.10;41.10;;;;;;6315622;28;20119;-77
2024/03/08 14:35:29;;;;;;;2.58;1.38;;;16.10;41.00;;;;;;6316448;28;20424;-78
2024/03/08 14:38:30;;;;;;;5.68;2.58;;;16.10;41.00;;;;;;6290363;28;20028;-78
2024/03/08 14:41:31;;;;;;;6.13;1.45;;;16.20;41.10;;;;;;6335636;28;20155;-77
2024/03/08 14:44:33;;;;;;;5.47;2.17;;;16.20;41.00;;;;;;6323490;28;20016;-77
2024/03/08 14:47:34;;;;;;;3.13;1.70;;;16.20;40.80;;;;;;6322727;28;20035;-78
2024/03/08 14:50:36;;;;;;;7.82;1.80;;;16.20;40.90;;;;;;6319503;28;20020;-78
2024/03/08 14:53:40;;;;;;;1.95;1.25;;;16.20;41.00;;;;;;6300052;28;20443;-78
2024/03/08 14:56:42;;;;;;;1.83;0.63;;;16.30;41.00;;;;;;6315732;28;20394;-78
2024/03/08 14:59:44;;;;;;;0.82;0.60;;;16.20;41.00;;;;;;6284617;28;20483;-76
2024/03/08 15:02:46;;;;;;;2.25;1.00;;;16.30;41.10;;;;;;6313906;28;20020;-78
2024/03/08 15:05:50;;;;;;;1.13;0.60;;;16.30;41.00;;;;;;6314657;28;20040;-78
2024/03/08 15:08:51;;;;;;;3.83;1.45;;;16.40;41.00;;;;;;6320393;28;20111;-76
2024/03/08 15:11:54;;;;;;;1.88;1.10;;;16.40;41.00;;;;;;6304548;28;20028;-77
2024/03/08 15:14:55;;;;;;;3.55;1.40;;;16.30;40.90;;;;;;6312454;28;20593;-78
2024/03/08 15:17:58;;;;;;;1.20;0.70;;;16.30;41.50;;;;;;6304031;28;20283;-77
2024/03/08 15:21:00;;;;;;;2.90;0.93;;;16.20;40.90;;;;;;6310918;28;20016;-77
2024/03/08 15:24:04;;;;;;;2.28;0.80;;;16.20;41.10;;;;;;6312475;28;20020;-77
2024/03/08 15:27:05;;;;;;;2.92;1.48;;;16.10;41.30;;;;;;6308887;28;20455;-79
2024/03/08 15:30:12;;;;;;;1.13;0.35;;;16.10;41.40;;;;;;6311381;28;20858;-78
2024/03/08 15:33:20;;;;;;;7.28;0.70;;;16.10;41.70;;;;;;6299946;28;20017;-77
2024/03/08 15:36:21;;;;;;;1.38;0.82;;;16.10;41.80;;;;;;6293632;28;20036;-76
2024/03/08 15:39:27;;;;;;;1.75;0.73;;;16.10;41.90;;;;;;6311259;28;20020;-77
2024/03/08 15:42:29;;;;;;;2.88;1.13;;;16.10;42.10;;;;;;6303060;28;20088;-76
2024/03/08 15:45:31;;;;;;;2.42;0.80;;;16.20;42.20;;;;;;6301209;28;20024;-78
2024/03/08 15:48:32;;;;;;;1.50;0.90;;;16.20;42.40;;;;;;6302523;28;20127;-77
2024/03/08 15:51:36;;;;;;;1.60;1.10;;;16.20;42.50;;;;;;6304945;28;20024;-78